RYR2M EGGW-EYKA
Flight info
| Callsign | RYR2M |
|---|---|
| Flight time | 2h 26m |
| Altitude | 37000 |
| Route | MATCH Q295 SOMVA DCT MAVAS DCT MALYK DCT LUWIL DCT BINKA DCT BARGU N858 BOKSU DCT ADIDU |
| Aircraft | B38M/M-SADE3FGILRWY/SB1 |
Departure
| Time | 2026-04-22 06:17 |
|---|---|
| Airport | London Luton Airport (EGGW) |
Arrival
| Time | 2026-04-22 08:44 |
|---|---|
| Airport | Kaunas International Airport (EYKA) |
| Time | Latitude | Longitude | Altitude | Speed | Heading |
|---|---|---|---|---|---|
| 2026-04-22 05:50 | 51.88109 | -0.37704 | 526 ft | 0 kts | 170° |
| 2026-04-22 06:05 | 51.88130 | -0.37709 | 526 ft | 4 kts | 161° |
| 2026-04-22 06:05 | 51.88143 | -0.37727 | 526 ft | 4 kts | 127° |
| 2026-04-22 06:05 | 51.88151 | -0.37738 | 526 ft | 4 kts | 220° |
| 2026-04-22 06:05 | 51.88166 | -0.37705 | 526 ft | 4 kts | 239° |
| 2026-04-22 06:06 | 51.88170 | -0.37694 | 526 ft | 0 kts | 239° |
| 2026-04-22 06:10 | 51.88165 | -0.37708 | 526 ft | 6 kts | 239° |
| 2026-04-22 06:10 | 51.88137 | -0.37781 | 526 ft | 8 kts | 234° |
| 2026-04-22 06:11 | 51.88088 | -0.37849 | 526 ft | 10 kts | 217° |
| 2026-04-22 06:11 | 51.88024 | -0.37927 | 526 ft | 13 kts | 218° |
| 2026-04-22 06:11 | 51.87944 | -0.38009 | 526 ft | 13 kts | 195° |
| 2026-04-22 06:11 | 51.87864 | -0.38002 | 526 ft | 12 kts | 159° |
| 2026-04-22 06:12 | 51.87797 | -0.37903 | 526 ft | 14 kts | 118° |
| 2026-04-22 06:12 | 51.87751 | -0.37748 | 526 ft | 16 kts | 115° |
| 2026-04-22 06:12 | 51.87701 | -0.37574 | 522 ft | 12 kts | 115° |
| 2026-04-22 06:12 | 51.87657 | -0.37486 | 524 ft | 10 kts | 146° |
| 2026-04-22 06:13 | 51.87591 | -0.37456 | 525 ft | 11 kts | 179° |
| 2026-04-22 06:13 | 51.87520 | -0.37490 | 523 ft | 8 kts | 221° |
| 2026-04-22 06:13 | 51.87498 | -0.37573 | 525 ft | 8 kts | 255° |
| 2026-04-22 06:13 | 51.87481 | -0.37668 | 526 ft | 9 kts | 254° |
| 2026-04-22 06:14 | 51.87462 | -0.37782 | 525 ft | 12 kts | 254° |
| 2026-04-22 06:14 | 51.87437 | -0.37922 | 526 ft | 13 kts | 255° |
| 2026-04-22 06:14 | 51.87394 | -0.38044 | 526 ft | 14 kts | 213° |
| 2026-04-22 06:14 | 51.87313 | -0.38108 | 524 ft | 9 kts | 201° |
| 2026-04-22 06:15 | 51.87253 | -0.38120 | 526 ft | 8 kts | 210° |
| 2026-04-22 06:15 | 51.87228 | -0.38210 | 525 ft | 11 kts | 254° |
| 2026-04-22 06:15 | 51.87229 | -0.38303 | 523 ft | 7 kts | 277° |
| 2026-04-22 06:15 | 51.87215 | -0.38331 | 523 ft | 1 kts | 175° |
| 2026-04-22 06:16 | 51.87210 | -0.38323 | 523 ft | 1 kts | 122° |
| 2026-04-22 06:16 | 51.87213 | -0.38289 | 523 ft | 5 kts | 74° |
| 2026-04-22 06:16 | 51.87214 | -0.38285 | 523 ft | 0 kts | 74° |
| 2026-04-22 06:16 | 51.87222 | -0.38238 | 525 ft | 25 kts | 74° |
| 2026-04-22 06:17 | 51.87352 | -0.37486 | 524 ft | 111 kts | 75° |
| 2026-04-22 06:17 | 51.87631 | -0.35909 | 590 ft | 174 kts | 73° |
| 2026-04-22 06:17 | 51.87978 | -0.33963 | 1500 ft | 183 kts | 73° |
| 2026-04-22 06:17 | 51.88331 | -0.31966 | 2571 ft | 197 kts | 76° |
| 2026-04-22 06:18 | 51.88705 | -0.29710 | 3345 ft | 215 kts | 77° |
| 2026-04-22 06:18 | 51.89084 | -0.27370 | 3597 ft | 213 kts | 77° |
| 2026-04-22 06:18 | 51.89475 | -0.25048 | 3823 ft | 214 kts | 76° |
| 2026-04-22 06:18 | 51.89647 | -0.22683 | 4098 ft | 213 kts | 98° |
| 2026-04-22 06:19 | 51.89055 | -0.20500 | 4359 ft | 218 kts | 126° |
| 2026-04-22 06:19 | 51.87831 | -0.19007 | 4590 ft | 227 kts | 152° |
| 2026-04-22 06:19 | 51.86256 | -0.18446 | 4834 ft | 237 kts | 169° |
| 2026-04-22 06:19 | 51.84603 | -0.18261 | 4933 ft | 236 kts | 163° |
| 2026-04-22 06:20 | 51.83185 | -0.17207 | 4996 ft | 224 kts | 142° |
| 2026-04-22 06:20 | 51.81804 | -0.15944 | 5064 ft | 228 kts | 147° |
| 2026-04-22 06:20 | 51.80379 | -0.14777 | 5085 ft | 235 kts | 148° |
| 2026-04-22 06:20 | 51.78873 | -0.13602 | 5057 ft | 243 kts | 149° |
| 2026-04-22 06:21 | 51.77344 | -0.12442 | 5065 ft | 247 kts | 147° |
| 2026-04-22 06:21 | 51.76080 | -0.10695 | 5051 ft | 237 kts | 120° |
| 2026-04-22 06:21 | 51.75525 | -0.08230 | 5069 ft | 235 kts | 96° |
| 2026-04-22 06:21 | 51.75574 | -0.05526 | 5270 ft | 241 kts | 86° |
| 2026-04-22 06:22 | 51.75734 | -0.02838 | 6120 ft | 240 kts | 85° |
| 2026-04-22 06:22 | 51.75919 | -0.00132 | 6848 ft | 246 kts | 85° |
| 2026-04-22 06:22 | 51.76124 | 0.02637 | 7491 ft | 250 kts | 84° |
| 2026-04-22 06:22 | 51.76341 | 0.05448 | 8215 ft | 255 kts | 84° |
| 2026-04-22 06:23 | 51.76568 | 0.08305 | 8928 ft | 258 kts | 83° |
| 2026-04-22 06:23 | 51.76798 | 0.11158 | 9646 ft | 262 kts | 83° |
| 2026-04-22 06:23 | 51.77034 | 0.14072 | 9923 ft | 267 kts | 83° |
| 2026-04-22 06:23 | 51.77277 | 0.17056 | 10617 ft | 269 kts | 83° |
| 2026-04-22 06:24 | 51.77798 | 0.23461 | 11158 ft | 307 kts | 83° |
| 2026-04-22 06:24 | 51.78085 | 0.26998 | 11365 ft | 326 kts | 83° |
| 2026-04-22 06:24 | 51.78384 | 0.30702 | 11695 ft | 338 kts | 83° |
| 2026-04-22 06:25 | 51.78687 | 0.34477 | 12371 ft | 341 kts | 83° |
| 2026-04-22 06:25 | 51.78993 | 0.38298 | 12996 ft | 346 kts | 83° |
| 2026-04-22 06:25 | 51.79302 | 0.42167 | 13661 ft | 350 kts | 83° |
| 2026-04-22 06:25 | 51.79613 | 0.46087 | 14307 ft | 354 kts | 83° |
| 2026-04-22 06:26 | 51.79928 | 0.50062 | 14911 ft | 358 kts | 83° |
| 2026-04-22 06:26 | 51.80503 | 0.53983 | 15561 ft | 362 kts | 69° |
| 2026-04-22 06:26 | 51.81453 | 0.57768 | 16172 ft | 366 kts | 69° |
| 2026-04-22 06:26 | 51.82393 | 0.61611 | 16815 ft | 369 kts | 69° |
| 2026-04-22 06:27 | 51.83330 | 0.65498 | 17432 ft | 373 kts | 69° |
| 2026-04-22 06:27 | 51.84271 | 0.69428 | 18015 ft | 376 kts | 69° |
| 2026-04-22 06:27 | 51.85217 | 0.73399 | 18645 ft | 379 kts | 69° |
| 2026-04-22 06:27 | 51.86170 | 0.77407 | 19117 ft | 384 kts | 69° |
| 2026-04-22 06:28 | 51.87128 | 0.81446 | 19675 ft | 385 kts | 69° |
| 2026-04-22 06:28 | 51.88091 | 0.85515 | 20147 ft | 390 kts | 69° |
| 2026-04-22 06:28 | 51.89065 | 0.89636 | 20650 ft | 392 kts | 68° |
| 2026-04-22 06:28 | 51.90040 | 0.93775 | 21131 ft | 397 kts | 68° |
| 2026-04-22 06:29 | 51.91030 | 0.97984 | 21559 ft | 401 kts | 68° |
| 2026-04-22 06:29 | 51.92019 | 1.02196 | 22193 ft | 400 kts | 69° |
| 2026-04-22 06:29 | 51.93014 | 1.06440 | 22620 ft | 405 kts | 69° |
| 2026-04-22 06:29 | 51.94015 | 1.10719 | 23158 ft | 407 kts | 69° |
| 2026-04-22 06:30 | 51.95023 | 1.15035 | 23552 ft | 413 kts | 69° |
| 2026-04-22 06:30 | 51.96042 | 1.19412 | 24031 ft | 415 kts | 69° |
| 2026-04-22 06:30 | 51.97065 | 1.23811 | 24388 ft | 420 kts | 68° |
| 2026-04-22 06:30 | 51.98099 | 1.28266 | 24788 ft | 423 kts | 68° |
| 2026-04-22 06:31 | 51.99136 | 1.32747 | 25169 ft | 427 kts | 68° |
| 2026-04-22 06:31 | 52.00169 | 1.37217 | 25529 ft | 431 kts | 67° |
| 2026-04-22 06:31 | 52.01222 | 1.41782 | 25932 ft | 433 kts | 67° |
| 2026-04-22 06:31 | 52.02280 | 1.46381 | 26306 ft | 437 kts | 67° |
| 2026-04-22 06:32 | 52.03343 | 1.51013 | 26809 ft | 437 kts | 68° |
| 2026-04-22 06:32 | 52.04399 | 1.55628 | 27311 ft | 436 kts | 69° |
| 2026-04-22 06:32 | 52.05456 | 1.60252 | 27758 ft | 438 kts | 69° |
| 2026-04-22 06:32 | 52.06519 | 1.64915 | 28061 ft | 442 kts | 68° |
| 2026-04-22 06:33 | 52.07586 | 1.69600 | 28480 ft | 443 kts | 69° |
| 2026-04-22 06:33 | 52.08659 | 1.74326 | 28758 ft | 448 kts | 68° |
| 2026-04-22 06:33 | 52.09737 | 1.79083 | 29155 ft | 449 kts | 68° |
| 2026-04-22 06:33 | 52.10820 | 1.83875 | 29439 ft | 453 kts | 68° |
| 2026-04-22 06:34 | 52.11908 | 1.88698 | 29826 ft | 455 kts | 68° |
| 2026-04-22 06:34 | 52.12999 | 1.93548 | 30151 ft | 457 kts | 68° |
| 2026-04-22 06:34 | 52.14090 | 1.98403 | 30571 ft | 457 kts | 69° |
| 2026-04-22 06:34 | 52.15178 | 2.03265 | 30966 ft | 456 kts | 70° |
| 2026-04-22 06:35 | 52.16260 | 2.08103 | 31405 ft | 454 kts | 69° |
| 2026-04-22 06:35 | 52.17338 | 2.12942 | 31705 ft | 456 kts | 69° |
| 2026-04-22 06:35 | 52.18417 | 2.17793 | 32077 ft | 455 kts | 69° |
| 2026-04-22 06:35 | 52.19493 | 2.22644 | 32413 ft | 456 kts | 69° |
| 2026-04-22 06:36 | 52.20569 | 2.27504 | 32772 ft | 456 kts | 68° |
| 2026-04-22 06:36 | 52.21281 | 2.30726 | 32996 ft | 456 kts | 68° |
| 2026-04-22 06:36 | 52.22354 | 2.35591 | 33312 ft | 457 kts | 68° |
| 2026-04-22 06:36 | 52.23426 | 2.40467 | 33658 ft | 457 kts | 68° |
| 2026-04-22 06:37 | 52.24498 | 2.45352 | 33995 ft | 457 kts | 68° |
| 2026-04-22 06:37 | 52.25566 | 2.50231 | 34369 ft | 456 kts | 69° |
| 2026-04-22 06:37 | 52.26628 | 2.55093 | 34767 ft | 453 kts | 69° |
| 2026-04-22 06:37 | 52.27681 | 2.59927 | 35090 ft | 452 kts | 69° |
| 2026-04-22 06:38 | 52.28736 | 2.64773 | 35342 ft | 453 kts | 69° |
| 2026-04-22 06:38 | 52.29787 | 2.69621 | 35619 ft | 453 kts | 69° |
| 2026-04-22 06:38 | 52.30838 | 2.74478 | 35862 ft | 454 kts | 69° |
| 2026-04-22 06:38 | 52.31887 | 2.79338 | 36137 ft | 454 kts | 69° |
| 2026-04-22 06:39 | 52.32935 | 2.84206 | 36380 ft | 454 kts | 69° |
| 2026-04-22 06:39 | 52.33982 | 2.89077 | 36641 ft | 454 kts | 69° |
| 2026-04-22 06:39 | 52.35025 | 2.93947 | 36877 ft | 455 kts | 69° |
| 2026-04-22 06:39 | 52.36070 | 2.98829 | 37128 ft | 454 kts | 69° |
| 2026-04-22 06:40 | 52.37110 | 3.03711 | 37362 ft | 454 kts | 69° |
| 2026-04-22 06:40 | 52.39183 | 3.13467 | 37365 ft | 452 kts | 69° |
| 2026-04-22 06:41 | 52.40755 | 3.23430 | 37387 ft | 454 kts | 75° |
| 2026-04-22 06:41 | 52.42226 | 3.33488 | 37370 ft | 453 kts | 74° |
| 2026-04-22 06:42 | 52.43712 | 3.43504 | 37375 ft | 454 kts | 74° |
| 2026-04-22 06:42 | 52.45198 | 3.53559 | 37380 ft | 453 kts | 74° |
| 2026-04-22 06:43 | 52.46661 | 3.63529 | 37384 ft | 451 kts | 75° |
| 2026-04-22 06:43 | 52.48124 | 3.73560 | 37382 ft | 449 kts | 75° |
| 2026-04-22 06:44 | 52.49561 | 3.83478 | 37390 ft | 449 kts | 75° |
| 2026-04-22 06:44 | 52.50998 | 3.93462 | 37396 ft | 449 kts | 75° |
| 2026-04-22 06:45 | 52.52428 | 4.03457 | 37399 ft | 448 kts | 75° |
| 2026-04-22 06:45 | 52.53843 | 4.13420 | 37395 ft | 447 kts | 75° |
| 2026-04-22 06:46 | 52.55241 | 4.23318 | 37392 ft | 447 kts | 75° |
| 2026-04-22 06:46 | 52.56639 | 4.33292 | 37390 ft | 447 kts | 75° |
| 2026-04-22 06:47 | 52.58025 | 4.43237 | 37389 ft | 447 kts | 75° |
| 2026-04-22 06:47 | 52.59394 | 4.53133 | 37395 ft | 447 kts | 75° |
| 2026-04-22 06:48 | 52.60765 | 4.63102 | 37393 ft | 447 kts | 75° |
| 2026-04-22 06:48 | 52.62126 | 4.73075 | 37396 ft | 447 kts | 76° |
| 2026-04-22 06:49 | 52.63480 | 4.83060 | 37396 ft | 447 kts | 76° |
| 2026-04-22 06:49 | 52.64826 | 4.93048 | 37395 ft | 447 kts | 76° |
| 2026-04-22 06:50 | 52.66163 | 5.03044 | 37412 ft | 447 kts | 76° |
| 2026-04-22 06:50 | 52.67488 | 5.13018 | 37401 ft | 445 kts | 76° |
| 2026-04-22 06:51 | 52.68802 | 5.22978 | 37406 ft | 445 kts | 76° |
| 2026-04-22 06:51 | 52.70108 | 5.32945 | 37403 ft | 445 kts | 76° |
| 2026-04-22 06:52 | 52.71404 | 5.42913 | 37401 ft | 445 kts | 76° |
| 2026-04-22 06:52 | 52.72694 | 5.52894 | 37404 ft | 445 kts | 76° |
| 2026-04-22 06:53 | 52.73973 | 5.62864 | 37407 ft | 443 kts | 76° |
| 2026-04-22 06:53 | 52.75241 | 5.72824 | 37406 ft | 443 kts | 76° |
| 2026-04-22 06:54 | 52.76501 | 5.82792 | 37402 ft | 443 kts | 76° |
| 2026-04-22 06:54 | 52.77754 | 5.92768 | 37403 ft | 444 kts | 76° |
| 2026-04-22 06:55 | 52.78997 | 6.02745 | 37407 ft | 444 kts | 76° |
| 2026-04-22 06:55 | 52.80231 | 6.12722 | 37406 ft | 442 kts | 76° |
| 2026-04-22 06:56 | 52.81454 | 6.22681 | 37409 ft | 442 kts | 76° |
| 2026-04-22 06:56 | 52.82660 | 6.32574 | 37406 ft | 442 kts | 76° |
| 2026-04-22 06:57 | 52.83867 | 6.42553 | 37401 ft | 442 kts | 77° |
| 2026-04-22 06:57 | 52.85065 | 6.52528 | 37402 ft | 441 kts | 77° |
| 2026-04-22 06:58 | 52.86253 | 6.62490 | 37421 ft | 441 kts | 77° |
| 2026-04-22 06:58 | 52.87428 | 6.72425 | 37409 ft | 440 kts | 77° |
| 2026-04-22 06:59 | 52.88588 | 6.82310 | 37411 ft | 440 kts | 77° |
| 2026-04-22 06:59 | 52.89748 | 6.92265 | 37409 ft | 440 kts | 77° |
| 2026-04-22 07:00 | 52.90898 | 7.02217 | 37404 ft | 440 kts | 77° |
| 2026-04-22 07:00 | 52.92040 | 7.12175 | 37421 ft | 440 kts | 77° |
| 2026-04-22 07:01 | 52.93173 | 7.22128 | 37407 ft | 438 kts | 77° |
| 2026-04-22 07:01 | 52.94292 | 7.32018 | 37406 ft | 439 kts | 77° |
| 2026-04-22 07:02 | 52.95410 | 7.41974 | 37404 ft | 439 kts | 77° |
| 2026-04-22 07:02 | 52.96514 | 7.51870 | 37415 ft | 431 kts | 77° |
| 2026-04-22 07:03 | 52.97598 | 7.61658 | 37413 ft | 431 kts | 77° |
| 2026-04-22 07:03 | 52.98681 | 7.71421 | 37408 ft | 429 kts | 75° |
| 2026-04-22 07:04 | 52.99978 | 7.81031 | 37397 ft | 429 kts | 76° |
| 2026-04-22 07:04 | 53.01264 | 7.90696 | 37401 ft | 429 kts | 76° |
| 2026-04-22 07:05 | 53.02540 | 8.00364 | 37406 ft | 428 kts | 76° |
| 2026-04-22 07:05 | 53.03808 | 8.10035 | 37407 ft | 429 kts | 76° |
| 2026-04-22 07:06 | 53.05068 | 8.19716 | 37415 ft | 428 kts | 76° |
| 2026-04-22 07:06 | 53.06317 | 8.29373 | 37401 ft | 427 kts | 76° |
| 2026-04-22 07:07 | 53.07557 | 8.39031 | 37406 ft | 427 kts | 76° |
| 2026-04-22 07:07 | 53.08791 | 8.48704 | 37403 ft | 427 kts | 76° |
| 2026-04-22 07:08 | 53.10016 | 8.58381 | 37401 ft | 427 kts | 76° |
| 2026-04-22 07:08 | 53.11234 | 8.68058 | 37399 ft | 427 kts | 76° |
| 2026-04-22 07:09 | 53.12442 | 8.77734 | 37399 ft | 426 kts | 76° |
| 2026-04-22 07:09 | 53.13640 | 8.87397 | 37405 ft | 426 kts | 76° |
| 2026-04-22 07:10 | 53.14832 | 8.97075 | 37405 ft | 426 kts | 76° |
| 2026-04-22 07:10 | 53.16016 | 9.06757 | 37400 ft | 426 kts | 76° |
| 2026-04-22 07:11 | 53.17191 | 9.16443 | 37405 ft | 426 kts | 76° |
| 2026-04-22 07:11 | 53.18359 | 9.26135 | 37417 ft | 426 kts | 76° |
| 2026-04-22 07:12 | 53.19510 | 9.35752 | 37403 ft | 426 kts | 76° |
| 2026-04-22 07:12 | 53.20661 | 9.45448 | 37400 ft | 426 kts | 77° |
| 2026-04-22 07:13 | 53.21803 | 9.55139 | 37398 ft | 426 kts | 77° |
| 2026-04-22 07:13 | 53.22939 | 9.64845 | 37396 ft | 426 kts | 77° |
| 2026-04-22 07:14 | 53.24067 | 9.74556 | 37398 ft | 426 kts | 77° |
| 2026-04-22 07:14 | 53.25186 | 9.84267 | 37404 ft | 426 kts | 77° |
| 2026-04-22 07:15 | 53.26297 | 9.93981 | 37397 ft | 426 kts | 77° |
| 2026-04-22 07:15 | 53.27400 | 10.03698 | 37403 ft | 426 kts | 77° |
| 2026-04-22 07:16 | 53.28489 | 10.13364 | 37400 ft | 426 kts | 77° |
| 2026-04-22 07:16 | 53.29578 | 10.23105 | 37396 ft | 426 kts | 77° |
| 2026-04-22 07:17 | 53.30657 | 10.32836 | 37408 ft | 425 kts | 77° |
| 2026-04-22 07:17 | 53.31725 | 10.42542 | 37398 ft | 424 kts | 77° |
| 2026-04-22 07:18 | 53.32785 | 10.52255 | 37398 ft | 424 kts | 77° |
| 2026-04-22 07:18 | 53.33838 | 10.61974 | 37393 ft | 424 kts | 77° |
| 2026-04-22 07:19 | 53.34883 | 10.71697 | 37396 ft | 424 kts | 77° |
| 2026-04-22 07:19 | 53.35920 | 10.81426 | 37390 ft | 424 kts | 78° |
| 2026-04-22 07:20 | 53.36942 | 10.91102 | 37397 ft | 424 kts | 78° |
| 2026-04-22 07:20 | 53.37962 | 11.00829 | 37389 ft | 424 kts | 78° |
| 2026-04-22 07:21 | 53.38975 | 11.10559 | 37382 ft | 424 kts | 78° |
| 2026-04-22 07:21 | 53.39982 | 11.20299 | 37380 ft | 424 kts | 78° |
| 2026-04-22 07:22 | 53.40981 | 11.30033 | 37378 ft | 424 kts | 78° |
| 2026-04-22 07:22 | 53.41974 | 11.39774 | 37378 ft | 424 kts | 78° |
| 2026-04-22 07:23 | 53.43110 | 11.49475 | 37382 ft | 423 kts | 75° |
| 2026-04-22 07:23 | 53.44378 | 11.59114 | 37373 ft | 423 kts | 76° |
| 2026-04-22 07:24 | 53.45617 | 11.68690 | 37366 ft | 422 kts | 76° |
| 2026-04-22 07:24 | 53.46854 | 11.78331 | 37368 ft | 422 kts | 76° |
| 2026-04-22 07:25 | 53.47877 | 11.86346 | 37361 ft | 422 kts | 76° |
| 2026-04-22 07:25 | 53.49101 | 11.95995 | 37382 ft | 422 kts | 76° |
| 2026-04-22 07:26 | 53.50317 | 12.05651 | 37360 ft | 422 kts | 76° |
| 2026-04-22 07:26 | 53.51522 | 12.15293 | 37361 ft | 422 kts | 76° |
| 2026-04-22 07:27 | 53.52721 | 12.24944 | 37359 ft | 422 kts | 76° |
| 2026-04-22 07:27 | 53.53911 | 12.34598 | 37351 ft | 422 kts | 76° |
| 2026-04-22 07:28 | 53.55677 | 12.49050 | 37345 ft | 422 kts | 76° |
| 2026-04-22 07:28 | 53.56848 | 12.58722 | 37346 ft | 422 kts | 76° |
| 2026-04-22 07:29 | 53.58011 | 12.68394 | 37349 ft | 421 kts | 76° |
| 2026-04-22 07:29 | 53.59166 | 12.78066 | 37338 ft | 421 kts | 76° |
| 2026-04-22 07:30 | 53.60312 | 12.87738 | 37344 ft | 421 kts | 76° |
| 2026-04-22 07:30 | 53.61443 | 12.97354 | 37348 ft | 421 kts | 76° |
| 2026-04-22 07:31 | 53.62573 | 13.07037 | 37336 ft | 421 kts | 76° |
| 2026-04-22 07:31 | 53.63696 | 13.16728 | 37336 ft | 420 kts | 76° |
| 2026-04-22 07:32 | 53.64809 | 13.26403 | 37334 ft | 421 kts | 76° |
| 2026-04-22 07:32 | 53.65914 | 13.36084 | 37335 ft | 420 kts | 76° |
| 2026-04-22 07:33 | 53.67011 | 13.45765 | 37329 ft | 420 kts | 77° |
| 2026-04-22 07:33 | 53.68101 | 13.55456 | 37329 ft | 420 kts | 77° |
| 2026-04-22 07:34 | 53.69182 | 13.65145 | 37351 ft | 420 kts | 77° |
| 2026-04-22 07:34 | 53.70255 | 13.74845 | 37326 ft | 420 kts | 77° |
| 2026-04-22 07:35 | 53.71320 | 13.84538 | 37320 ft | 420 kts | 77° |
| 2026-04-22 07:35 | 53.72376 | 13.94227 | 37317 ft | 420 kts | 77° |
| 2026-04-22 07:36 | 53.73425 | 14.03923 | 37316 ft | 420 kts | 77° |
| 2026-04-22 07:36 | 53.74470 | 14.13635 | 37294 ft | 419 kts | 77° |
| 2026-04-22 07:37 | 53.75500 | 14.23278 | 37318 ft | 420 kts | 77° |
| 2026-04-22 07:37 | 53.76219 | 14.33095 | 37316 ft | 422 kts | 82° |
| 2026-04-22 07:38 | 53.76809 | 14.42967 | 37297 ft | 422 kts | 81° |
| 2026-04-22 07:38 | 53.77416 | 14.52829 | 37298 ft | 422 kts | 81° |
| 2026-04-22 07:39 | 53.78017 | 14.62690 | 37297 ft | 422 kts | 81° |
| 2026-04-22 07:39 | 53.78611 | 14.72565 | 37297 ft | 422 kts | 81° |
| 2026-04-22 07:40 | 53.79193 | 14.82371 | 37302 ft | 422 kts | 82° |
| 2026-04-22 07:40 | 53.79771 | 14.92241 | 37297 ft | 422 kts | 82° |
| 2026-04-22 07:41 | 53.80340 | 15.02119 | 37296 ft | 422 kts | 82° |
| 2026-04-22 07:41 | 53.80902 | 15.11997 | 37291 ft | 421 kts | 82° |
| 2026-04-22 07:42 | 53.81454 | 15.21853 | 37289 ft | 421 kts | 82° |
| 2026-04-22 07:42 | 53.81998 | 15.31725 | 37290 ft | 421 kts | 82° |
| 2026-04-22 07:43 | 53.82534 | 15.41591 | 37293 ft | 421 kts | 82° |
| 2026-04-22 07:43 | 53.83063 | 15.51467 | 37290 ft | 421 kts | 82° |
| 2026-04-22 07:44 | 53.83583 | 15.61344 | 37285 ft | 421 kts | 82° |
| 2026-04-22 07:44 | 53.84091 | 15.71153 | 37287 ft | 421 kts | 82° |
| 2026-04-22 07:45 | 53.84595 | 15.81034 | 37287 ft | 421 kts | 82° |
| 2026-04-22 07:45 | 53.85090 | 15.90902 | 37301 ft | 421 kts | 82° |
| 2026-04-22 07:46 | 53.85577 | 16.00768 | 37282 ft | 420 kts | 83° |
| 2026-04-22 07:46 | 53.86055 | 16.10626 | 37282 ft | 420 kts | 83° |
| 2026-04-22 07:47 | 53.86525 | 16.20484 | 37276 ft | 420 kts | 83° |
| 2026-04-22 07:47 | 53.86987 | 16.30348 | 37275 ft | 420 kts | 83° |
| 2026-04-22 07:48 | 53.87441 | 16.40212 | 37273 ft | 420 kts | 83° |
| 2026-04-22 07:48 | 53.87886 | 16.50083 | 37281 ft | 419 kts | 83° |
| 2026-04-22 07:49 | 53.88322 | 16.59908 | 37269 ft | 418 kts | 83° |
| 2026-04-22 07:49 | 53.88750 | 16.69746 | 37267 ft | 418 kts | 83° |
| 2026-04-22 07:50 | 53.89171 | 16.79586 | 37263 ft | 418 kts | 83° |
| 2026-04-22 07:50 | 53.89582 | 16.89416 | 37263 ft | 418 kts | 83° |
| 2026-04-22 07:51 | 53.89987 | 16.99265 | 37260 ft | 418 kts | 83° |
| 2026-04-22 07:51 | 53.90380 | 17.09042 | 37257 ft | 419 kts | 83° |
| 2026-04-22 07:52 | 53.90768 | 17.18889 | 37261 ft | 418 kts | 83° |
| 2026-04-22 07:52 | 53.91148 | 17.28741 | 37248 ft | 419 kts | 83° |
| 2026-04-22 07:53 | 53.91520 | 17.38600 | 37252 ft | 419 kts | 84° |
| 2026-04-22 07:53 | 53.91884 | 17.48454 | 37250 ft | 419 kts | 84° |
| 2026-04-22 07:54 | 53.92240 | 17.58312 | 37268 ft | 419 kts | 84° |
| 2026-04-22 07:54 | 53.92588 | 17.68180 | 37249 ft | 419 kts | 84° |
| 2026-04-22 07:55 | 53.92928 | 17.78053 | 37245 ft | 419 kts | 84° |
| 2026-04-22 07:55 | 53.93260 | 17.87934 | 37237 ft | 419 kts | 84° |
| 2026-04-22 07:56 | 53.93585 | 17.97816 | 37234 ft | 419 kts | 84° |
| 2026-04-22 07:56 | 53.93900 | 18.07694 | 37236 ft | 419 kts | 84° |
| 2026-04-22 07:57 | 53.94206 | 18.17511 | 37248 ft | 419 kts | 84° |
| 2026-04-22 07:57 | 53.94506 | 18.27386 | 37233 ft | 419 kts | 84° |
| 2026-04-22 07:58 | 53.94799 | 18.37324 | 37229 ft | 419 kts | 84° |
| 2026-04-22 07:58 | 53.95082 | 18.47199 | 37222 ft | 419 kts | 85° |
| 2026-04-22 07:59 | 53.95355 | 18.57004 | 37222 ft | 419 kts | 85° |
| 2026-04-22 07:59 | 53.95622 | 18.66885 | 37224 ft | 419 kts | 85° |
| 2026-04-22 08:00 | 53.95881 | 18.76762 | 37232 ft | 419 kts | 85° |
| 2026-04-22 08:00 | 53.96132 | 18.86631 | 37227 ft | 418 kts | 85° |
| 2026-04-22 08:01 | 53.96374 | 18.96507 | 37224 ft | 418 kts | 85° |
| 2026-04-22 08:01 | 53.96608 | 19.06374 | 37220 ft | 419 kts | 85° |
| 2026-04-22 08:02 | 53.96835 | 19.16256 | 37221 ft | 419 kts | 85° |
| 2026-04-22 08:02 | 53.97053 | 19.26134 | 37212 ft | 419 kts | 85° |
| 2026-04-22 08:03 | 53.97263 | 19.36004 | 37206 ft | 417 kts | 85° |
| 2026-04-22 08:03 | 53.97464 | 19.45854 | 37214 ft | 417 kts | 85° |
| 2026-04-22 08:04 | 53.97658 | 19.55704 | 37210 ft | 417 kts | 85° |
| 2026-04-22 08:04 | 53.97843 | 19.65558 | 37213 ft | 417 kts | 85° |
| 2026-04-22 08:05 | 53.98021 | 19.75408 | 37195 ft | 417 kts | 85° |
| 2026-04-22 08:05 | 53.98190 | 19.85267 | 37229 ft | 417 kts | 86° |
| 2026-04-22 08:06 | 53.98351 | 19.95122 | 37199 ft | 417 kts | 86° |
| 2026-04-22 08:06 | 53.98504 | 20.04978 | 37188 ft | 417 kts | 86° |
| 2026-04-22 08:07 | 53.98649 | 20.14837 | 37186 ft | 417 kts | 86° |
| 2026-04-22 08:07 | 53.98786 | 20.24690 | 37180 ft | 417 kts | 86° |
| 2026-04-22 08:08 | 53.98915 | 20.34552 | 37183 ft | 417 kts | 86° |
| 2026-04-22 08:08 | 53.99036 | 20.44410 | 37180 ft | 417 kts | 86° |
| 2026-04-22 08:09 | 53.99149 | 20.54263 | 37167 ft | 416 kts | 86° |
| 2026-04-22 08:09 | 53.99256 | 20.64108 | 37163 ft | 417 kts | 86° |
| 2026-04-22 08:10 | 53.99356 | 20.73955 | 37163 ft | 416 kts | 86° |
| 2026-04-22 08:10 | 53.99449 | 20.83778 | 37166 ft | 416 kts | 86° |
| 2026-04-22 08:11 | 53.99533 | 20.93541 | 37167 ft | 416 kts | 86° |
| 2026-04-22 08:11 | 53.99610 | 21.03360 | 37164 ft | 416 kts | 86° |
| 2026-04-22 08:12 | 53.99668 | 21.11527 | 37166 ft | 416 kts | 86° |
| 2026-04-22 08:12 | 53.99732 | 21.21341 | 37155 ft | 412 kts | 86° |
| 2026-04-22 08:13 | 53.99993 | 21.26078 | 37078 ft | 393 kts | 74° |
| 2026-04-22 08:13 | 54.00737 | 21.30432 | 37065 ft | 376 kts | 72° |
| 2026-04-22 08:13 | 54.01457 | 21.34648 | 36914 ft | 369 kts | 72° |
| 2026-04-22 08:13 | 54.02197 | 21.38889 | 36475 ft | 379 kts | 72° |
| 2026-04-22 08:14 | 54.02957 | 21.43196 | 35890 ft | 381 kts | 72° |
| 2026-04-22 08:14 | 54.03721 | 21.47502 | 35372 ft | 379 kts | 72° |
| 2026-04-22 08:14 | 54.04480 | 21.51772 | 34921 ft | 376 kts | 72° |
| 2026-04-22 08:14 | 54.05233 | 21.56010 | 34477 ft | 373 kts | 72° |
| 2026-04-22 08:15 | 54.05978 | 21.60216 | 34008 ft | 370 kts | 72° |
| 2026-04-22 08:15 | 54.06718 | 21.64394 | 33470 ft | 367 kts | 72° |
| 2026-04-22 08:15 | 54.07449 | 21.68533 | 33007 ft | 363 kts | 72° |
| 2026-04-22 08:15 | 54.08170 | 21.72625 | 32592 ft | 358 kts | 72° |
| 2026-04-22 08:16 | 54.08878 | 21.76652 | 32200 ft | 352 kts | 73° |
| 2026-04-22 08:16 | 54.09575 | 21.80625 | 31802 ft | 348 kts | 73° |
| 2026-04-22 08:16 | 54.10262 | 21.84545 | 31405 ft | 343 kts | 73° |
| 2026-04-22 08:16 | 54.10938 | 21.88420 | 31026 ft | 339 kts | 73° |
| 2026-04-22 08:17 | 54.11596 | 21.92191 | 30658 ft | 334 kts | 73° |
| 2026-04-22 08:17 | 54.12252 | 21.95965 | 30294 ft | 330 kts | 73° |
| 2026-04-22 08:17 | 54.12899 | 21.99690 | 29894 ft | 326 kts | 73° |
| 2026-04-22 08:17 | 54.13535 | 22.03366 | 29517 ft | 321 kts | 73° |
| 2026-04-22 08:18 | 54.14161 | 22.06983 | 29175 ft | 315 kts | 73° |
| 2026-04-22 08:18 | 54.14774 | 22.10538 | 28850 ft | 310 kts | 73° |
| 2026-04-22 08:18 | 54.15376 | 22.14033 | 28520 ft | 305 kts | 72° |
| 2026-04-22 08:18 | 54.15969 | 22.17479 | 28201 ft | 300 kts | 72° |
| 2026-04-22 08:19 | 54.16550 | 22.20874 | 27839 ft | 297 kts | 72° |
| 2026-04-22 08:19 | 54.17132 | 22.24285 | 27482 ft | 302 kts | 72° |
| 2026-04-22 08:19 | 54.17724 | 22.27751 | 27208 ft | 306 kts | 72° |
| 2026-04-22 08:19 | 54.18319 | 22.31250 | 26888 ft | 307 kts | 72° |
| 2026-04-22 08:20 | 54.18914 | 22.34752 | 26577 ft | 307 kts | 72° |
| 2026-04-22 08:20 | 54.19506 | 22.38244 | 26255 ft | 306 kts | 72° |
| 2026-04-22 08:20 | 54.20096 | 22.41731 | 25933 ft | 305 kts | 72° |
| 2026-04-22 08:20 | 54.20684 | 22.45209 | 25624 ft | 304 kts | 72° |
| 2026-04-22 08:21 | 54.21269 | 22.48680 | 25317 ft | 303 kts | 72° |
| 2026-04-22 08:21 | 54.21851 | 22.52140 | 25019 ft | 302 kts | 72° |
| 2026-04-22 08:21 | 54.22429 | 22.55585 | 24706 ft | 301 kts | 72° |
| 2026-04-22 08:21 | 54.23006 | 22.59026 | 24412 ft | 300 kts | 71° |
| 2026-04-22 08:22 | 54.23579 | 22.62449 | 24110 ft | 299 kts | 71° |
| 2026-04-22 08:22 | 54.24149 | 22.65868 | 23804 ft | 298 kts | 71° |
| 2026-04-22 08:22 | 54.24717 | 22.69274 | 23466 ft | 297 kts | 71° |
| 2026-04-22 08:22 | 54.25280 | 22.72665 | 23130 ft | 296 kts | 71° |
| 2026-04-22 08:23 | 54.25842 | 22.76051 | 22822 ft | 296 kts | 71° |
| 2026-04-22 08:23 | 54.26422 | 22.79421 | 22524 ft | 294 kts | 67° |
| 2026-04-22 08:23 | 54.27270 | 22.82582 | 22146 ft | 291 kts | 59° |
| 2026-04-22 08:23 | 54.28301 | 22.85552 | 21731 ft | 290 kts | 58° |
| 2026-04-22 08:24 | 54.29345 | 22.88505 | 21333 ft | 289 kts | 58° |
| 2026-04-22 08:24 | 54.30369 | 22.91415 | 20948 ft | 288 kts | 58° |
| 2026-04-22 08:24 | 54.31400 | 22.94359 | 20560 ft | 288 kts | 58° |
| 2026-04-22 08:24 | 54.32423 | 22.97298 | 20176 ft | 288 kts | 58° |
| 2026-04-22 08:25 | 54.33445 | 23.00246 | 19796 ft | 287 kts | 58° |
| 2026-04-22 08:25 | 54.34461 | 23.03193 | 19436 ft | 286 kts | 58° |
| 2026-04-22 08:25 | 54.35468 | 23.06133 | 19064 ft | 286 kts | 58° |
| 2026-04-22 08:25 | 54.36509 | 23.09025 | 18721 ft | 284 kts | 55° |
| 2026-04-22 08:26 | 54.37586 | 23.11856 | 18354 ft | 283 kts | 55° |
| 2026-04-22 08:26 | 54.38653 | 23.14693 | 17941 ft | 283 kts | 55° |
| 2026-04-22 08:26 | 54.39710 | 23.17522 | 17546 ft | 282 kts | 55° |
| 2026-04-22 08:26 | 54.40766 | 23.20361 | 17161 ft | 281 kts | 55° |
| 2026-04-22 08:27 | 54.41816 | 23.23191 | 16782 ft | 280 kts | 56° |
| 2026-04-22 08:27 | 54.42861 | 23.26016 | 16397 ft | 280 kts | 56° |
| 2026-04-22 08:27 | 54.43901 | 23.28831 | 16040 ft | 279 kts | 56° |
| 2026-04-22 08:27 | 54.44941 | 23.31648 | 15661 ft | 279 kts | 56° |
| 2026-04-22 08:28 | 54.45977 | 23.34458 | 15303 ft | 278 kts | 56° |
| 2026-04-22 08:28 | 54.46998 | 23.37231 | 14956 ft | 278 kts | 56° |
| 2026-04-22 08:28 | 54.48029 | 23.40034 | 14629 ft | 277 kts | 56° |
| 2026-04-22 08:28 | 54.49058 | 23.42837 | 14266 ft | 277 kts | 56° |
| 2026-04-22 08:29 | 54.50085 | 23.45636 | 13942 ft | 276 kts | 56° |
| 2026-04-22 08:29 | 54.51108 | 23.48426 | 13592 ft | 275 kts | 56° |
| 2026-04-22 08:29 | 54.52130 | 23.51217 | 13233 ft | 275 kts | 56° |
| 2026-04-22 08:29 | 54.53147 | 23.53998 | 12876 ft | 274 kts | 56° |
| 2026-04-22 08:30 | 54.54161 | 23.56774 | 12521 ft | 273 kts | 56° |
| 2026-04-22 08:30 | 54.55172 | 23.59544 | 12181 ft | 273 kts | 56° |
| 2026-04-22 08:30 | 54.56180 | 23.62310 | 11849 ft | 272 kts | 56° |
| 2026-04-22 08:30 | 54.57185 | 23.65072 | 11510 ft | 271 kts | 56° |
| 2026-04-22 08:31 | 54.58188 | 23.67828 | 11180 ft | 271 kts | 56° |
| 2026-04-22 08:31 | 54.59173 | 23.70542 | 10873 ft | 270 kts | 56° |
| 2026-04-22 08:31 | 54.61159 | 23.76017 | 10371 ft | 268 kts | 56° |
| 2026-04-22 08:32 | 54.62151 | 23.78754 | 10263 ft | 270 kts | 56° |
| 2026-04-22 08:32 | 54.63142 | 23.81496 | 10142 ft | 269 kts | 56° |
| 2026-04-22 08:32 | 54.64134 | 23.84242 | 10039 ft | 270 kts | 56° |
| 2026-04-22 08:32 | 54.65128 | 23.86998 | 9917 ft | 270 kts | 56° |
| 2026-04-22 08:33 | 54.66121 | 23.89752 | 9798 ft | 270 kts | 56° |
| 2026-04-22 08:33 | 54.67114 | 23.92511 | 9650 ft | 269 kts | 56° |
| 2026-04-22 08:33 | 54.68101 | 23.95256 | 9517 ft | 269 kts | 56° |
| 2026-04-22 08:33 | 54.69086 | 23.97998 | 9384 ft | 269 kts | 56° |
| 2026-04-22 08:34 | 54.70071 | 24.00742 | 9267 ft | 268 kts | 56° |
| 2026-04-22 08:34 | 54.71052 | 24.03481 | 9128 ft | 267 kts | 56° |
| 2026-04-22 08:34 | 54.72030 | 24.06211 | 8999 ft | 267 kts | 56° |
| 2026-04-22 08:34 | 54.73005 | 24.08938 | 8874 ft | 266 kts | 56° |
| 2026-04-22 08:35 | 54.73978 | 24.11659 | 8735 ft | 266 kts | 56° |
| 2026-04-22 08:35 | 54.74947 | 24.14375 | 8605 ft | 265 kts | 56° |
| 2026-04-22 08:35 | 54.75915 | 24.17091 | 8484 ft | 265 kts | 56° |
| 2026-04-22 08:35 | 54.76879 | 24.19799 | 8317 ft | 264 kts | 56° |
| 2026-04-22 08:36 | 54.77852 | 24.22535 | 7842 ft | 270 kts | 56° |
| 2026-04-22 08:36 | 54.78834 | 24.25300 | 7523 ft | 268 kts | 56° |
| 2026-04-22 08:36 | 54.79810 | 24.28050 | 7208 ft | 268 kts | 56° |
| 2026-04-22 08:36 | 54.80782 | 24.30789 | 6924 ft | 266 kts | 56° |
| 2026-04-22 08:37 | 54.81748 | 24.33519 | 6619 ft | 265 kts | 56° |
| 2026-04-22 08:37 | 54.82710 | 24.36240 | 6333 ft | 264 kts | 56° |
| 2026-04-22 08:37 | 54.83667 | 24.38949 | 6086 ft | 260 kts | 56° |
| 2026-04-22 08:37 | 54.84593 | 24.41568 | 5922 ft | 251 kts | 55° |
| 2026-04-22 08:38 | 54.85790 | 24.43697 | 5558 ft | 246 kts | 27° |
| 2026-04-22 08:38 | 54.87381 | 24.44471 | 5267 ft | 243 kts | 0° |
| 2026-04-22 08:38 | 54.88809 | 24.44090 | 5125 ft | 238 kts | 345° |
| 2026-04-22 08:38 | 54.90425 | 24.43329 | 5111 ft | 242 kts | 345° |
| 2026-04-22 08:39 | 54.92036 | 24.42552 | 5031 ft | 241 kts | 344° |
| 2026-04-22 08:39 | 54.93654 | 24.41755 | 5007 ft | 238 kts | 344° |
| 2026-04-22 08:39 | 54.95213 | 24.40973 | 4939 ft | 229 kts | 344° |
| 2026-04-22 08:39 | 54.96629 | 24.39769 | 4472 ft | 229 kts | 319° |
| 2026-04-22 08:40 | 54.97490 | 24.37465 | 3942 ft | 232 kts | 290° |
| 2026-04-22 08:40 | 54.97626 | 24.34668 | 3474 ft | 233 kts | 268° |
| 2026-04-22 08:40 | 54.97502 | 24.31870 | 3004 ft | 230 kts | 269° |
| 2026-04-22 08:40 | 54.97387 | 24.29115 | 2537 ft | 226 kts | 268° |
| 2026-04-22 08:41 | 54.97270 | 24.26463 | 2150 ft | 208 kts | 268° |
| 2026-04-22 08:41 | 54.97162 | 24.24115 | 1903 ft | 185 kts | 268° |
| 2026-04-22 08:41 | 54.97055 | 24.22006 | 1650 ft | 167 kts | 267° |
| 2026-04-22 08:41 | 54.96942 | 24.20073 | 1381 ft | 155 kts | 268° |
| 2026-04-22 08:42 | 54.96863 | 24.18254 | 1104 ft | 146 kts | 268° |
| 2026-04-22 08:42 | 54.96785 | 24.16545 | 902 ft | 140 kts | 266° |
| 2026-04-22 08:42 | 54.96700 | 24.14834 | 763 ft | 143 kts | 266° |
| 2026-04-22 08:42 | 54.96609 | 24.13095 | 604 ft | 146 kts | 266° |
| 2026-04-22 08:43 | 54.96525 | 24.11344 | 416 ft | 142 kts | 267° |
| 2026-04-22 08:43 | 54.96443 | 24.09692 | 278 ft | 129 kts | 266° |
| 2026-04-22 08:43 | 54.96386 | 24.08483 | 273 ft | 62 kts | 264° |
| 2026-04-22 08:43 | 54.96355 | 24.07875 | 270 ft | 51 kts | 265° |
| 2026-04-22 08:44 | 54.96332 | 24.07418 | 269 ft | 14 kts | 265° |
| 2026-04-22 08:44 | 54.96385 | 24.07346 | 270 ft | 11 kts | 354° |
| 2026-04-22 08:44 | 54.96468 | 24.07333 | 270 ft | 13 kts | 354° |
| 2026-04-22 08:44 | 54.96565 | 24.07316 | 270 ft | 15 kts | 354° |
| 2026-04-22 08:45 | 54.96608 | 24.07311 | 270 ft | 6 kts | 360° |
| 2026-04-22 08:45 | 54.96633 | 24.07348 | 270 ft | 3 kts | 84° |
| 2026-04-22 08:45 | 54.96628 | 24.07390 | 270 ft | 3 kts | 104° |
| 2026-04-22 08:45 | 54.96627 | 24.07401 | 270 ft | 0 kts | 104° |